Weather at Potomac Airfield

Public forecast

Using degrees Fahrenheit for public forecast. Weather courtesy of forecast.io.

Closest aviation weather report (METAR) to Potomac Airfield

Closest report is Joint Base Andrews, 5.7 nm (10.5 km) NE.

2024/07/16 19:35 (retrieved 27 minutes ago)

KADW 161935Z 21019G26KT 10SM CLR 39/16 A2976 RMK SLP081 PWINO

Closest aviation forecast (TAF) to Potomac Airfield

Closest forecast is Joint Base Andrews, 5.7 nm (10.5 km) NE.

2024/07/16 19:51 Ammendment (retrieved 11 minutes ago)

TAF AMD KADW 161945Z 1619/1723 20012G21KT 9999 FEW070 QNH2977INS TEMPO 1619/1621 21015G25KT BECMG 1621/1622 22012G18KT 9999 VCTS SCT070CB SCT140 QNH2973INS BECMG 1623/1624 25010KT 9999 NSW BKN140 510052 QNH2980INS BECMG 1703/1704 22007KT 9999 FEW060 FEW140 QNH2978INS BECMG 1718/1719 23012G18KT 9999 -SHRA VCTS FEW080CB SCT120 QNH2978INS TX40/1619Z TN25/1710Z